sensor_id;sensor_type;location;lat;lon;timestamp;temperature;humidity
1277;DHT22;631;51.024;13.826;2023-12-22T00:00:12;6.10;1.00
1277;DHT22;631;51.024;13.826;2023-12-22T00:02:37;6.10;1.00
1277;DHT22;631;51.024;13.826;2023-12-22T00:05:03;6.10;1.00
1277;DHT22;631;51.024;13.826;2023-12-22T00:07:29;6.10;1.00
1277;DHT22;631;51.024;13.826;2023-12-22T00:09:54;6.10;1.00
1277;DHT22;631;51.024;13.826;2023-12-22T00:12:20;6.10;1.00
1277;DHT22;631;51.024;13.826;2023-12-22T00:14:45;6.00;1.00
1277;DHT22;631;51.024;13.826;2023-12-22T00:17:11;6.10;1.00
1277;DHT22;631;51.024;13.826;2023-12-22T00:19:37;6.20;99.90
1277;DHT22;631;51.024;13.826;2023-12-22T00:22:02;6.10;99.90
1277;DHT22;631;51.024;13.826;2023-12-22T00:24:29;6.10;1.00
1277;DHT22;631;51.024;13.826;2023-12-22T00:26:54;6.10;1.00
1277;DHT22;631;51.024;13.826;2023-12-22T00:29:20;6.10;99.90
1277;DHT22;631;51.024;13.826;2023-12-22T00:31:46;6.00;99.90
1277;DHT22;631;51.024;13.826;2023-12-22T00:34:11;6.10;99.90
1277;DHT22;631;51.024;13.826;2023-12-22T00:36:37;6.10;99.90
1277;DHT22;631;51.024;13.826;2023-12-22T00:39:02;6.00;99.90
1277;DHT22;631;51.024;13.826;2023-12-22T00:41:28;6.00;99.90
1277;DHT22;631;51.024;13.826;2023-12-22T00:43:54;6.10;1.00
1277;DHT22;631;51.024;13.826;2023-12-22T00:46:19;6.10;99.90
1277;DHT22;631;51.024;13.826;2023-12-22T00:48:45;6.00;99.90
1277;DHT22;631;51.024;13.826;2023-12-22T00:51:11;6.10;99.90
1277;DHT22;631;51.024;13.826;2023-12-22T00:53:37;6.10;99.90
1277;DHT22;631;51.024;13.826;2023-12-22T00:56:03;6.10;99.90
1277;DHT22;631;51.024;13.826;2023-12-22T00:58:29;6.10;99.90
1277;DHT22;631;51.024;13.826;2023-12-22T01:00:55;6.10;99.90
1277;DHT22;631;51.024;13.826;2023-12-22T01:03:21;6.10;99.90
1277;DHT22;631;51.024;13.826;2023-12-22T01:05:46;6.10;99.90
1277;DHT22;631;51.024;13.826;2023-12-22T01:08:12;6.20;99.90
1277;DHT22;631;51.024;13.826;2023-12-22T01:10:37;6.20;1.00
1277;DHT22;631;51.024;13.826;2023-12-22T01:13:03;6.30;1.00
1277;DHT22;631;51.024;13.826;2023-12-22T01:15:29;6.20;1.00
1277;DHT22;631;51.024;13.826;2023-12-22T01:17:54;6.30;99.90
1277;DHT22;631;51.024;13.826;2023-12-22T01:20:20;6.30;99.90
1277;DHT22;631;51.024;13.826;2023-12-22T01:22:45;6.30;1.00
1277;DHT22;631;51.024;13.826;2023-12-22T01:25:11;6.30;99.90
1277;DHT22;631;51.024;13.826;2023-12-22T01:27:37;6.30;99.90
1277;DHT22;631;51.024;13.826;2023-12-22T01:30:03;6.40;1.00
1277;DHT22;631;51.024;13.826;2023-12-22T01:32:28;6.30;1.00
1277;DHT22;631;51.024;13.826;2023-12-22T01:35:00;6.30;1.00
1277;DHT22;631;51.024;13.826;2023-12-22T01:37:32;6.30;1.00
1277;DHT22;631;51.024;13.826;2023-12-22T01:39:57;6.30;1.00
1277;DHT22;631;51.024;13.826;2023-12-22T01:42:23;6.20;1.00
1277;DHT22;631;51.024;13.826;2023-12-22T01:44:49;6.30;1.00
1277;DHT22;631;51.024;13.826;2023-12-22T01:47:14;6.20;1.00
1277;DHT22;631;51.024;13.826;2023-12-22T01:49:40;6.30;1.00
1277;DHT22;631;51.024;13.826;2023-12-22T01:52:06;6.30;1.00
1277;DHT22;631;51.024;13.826;2023-12-22T01:54:32;6.30;1.00
1277;DHT22;631;51.024;13.826;2023-12-22T01:56:58;6.20;1.00
1277;DHT22;631;51.024;13.826;2023-12-22T01:59:24;6.20;1.00
1277;DHT22;631;51.024;13.826;2023-12-22T02:01:50;6.20;1.00
1277;DHT22;631;51.024;13.826;2023-12-22T02:04:16;6.20;99.90
1277;DHT22;631;51.024;13.826;2023-12-22T02:06:42;6.20;1.00
1277;DHT22;631;51.024;13.826;2023-12-22T02:09:08;6.10;1.00
1277;DHT22;631;51.024;13.826;2023-12-22T02:11:33;6.10;99.90
1277;DHT22;631;51.024;13.826;2023-12-22T02:13:59;6.00;99.90
1277;DHT22;631;51.024;13.826;2023-12-22T02:16:36;5.80;99.90
1277;DHT22;631;51.024;13.826;2023-12-22T02:19:21;5.70;99.90
1277;DHT22;631;51.024;13.826;2023-12-22T02:22:05;5.60;1.00
1277;DHT22;631;51.024;13.826;2023-12-22T02:24:31;5.60;1.00
1277;DHT22;631;51.024;13.826;2023-12-22T02:29:31;5.40;1.00
1277;DHT22;631;51.024;13.826;2023-12-22T02:32:04;5.30;99.90
1277;DHT22;631;51.024;13.826;2023-12-22T02:34:35;5.40;99.90
1277;DHT22;631;51.024;13.826;2023-12-22T02:37:04;5.40;1.00
1277;DHT22;631;51.024;13.826;2023-12-22T02:39:30;5.50;1.00
1277;DHT22;631;51.024;13.826;2023-12-22T02:41:56;5.50;1.00
1277;DHT22;631;51.024;13.826;2023-12-22T02:44:22;5.50;1.00
1277;DHT22;631;51.024;13.826;2023-12-22T02:50:10;5.40;99.90
1277;DHT22;631;51.024;13.826;2023-12-22T02:55:57;5.40;1.00
1277;DHT22;631;51.024;13.826;2023-12-22T02:58:23;5.30;99.90
1277;DHT22;631;51.024;13.826;2023-12-22T03:00:48;5.40;99.90
1277;DHT22;631;51.024;13.826;2023-12-22T03:03:14;5.30;99.90
1277;DHT22;631;51.024;13.826;2023-12-22T03:05:40;5.40;1.00
1277;DHT22;631;51.024;13.826;2023-12-22T03:08:06;5.40;1.00
1277;DHT22;631;51.024;13.826;2023-12-22T03:10:31;5.50;99.90
1277;DHT22;631;51.024;13.826;2023-12-22T03:12:57;5.50;99.90
1277;DHT22;631;51.024;13.826;2023-12-22T03:15:22;5.50;99.90
1277;DHT22;631;51.024;13.826;2023-12-22T03:17:48;5.50;99.90
1277;DHT22;631;51.024;13.826;2023-12-22T03:20:13;5.50;99.90
1277;DHT22;631;51.024;13.826;2023-12-22T03:22:39;5.50;99.90
1277;DHT22;631;51.024;13.826;2023-12-22T03:25:05;5.50;99.90
1277;DHT22;631;51.024;13.826;2023-12-22T03:27:30;5.50;99.90
1277;DHT22;631;51.024;13.826;2023-12-22T03:29:56;5.50;99.90
1277;DHT22;631;51.024;13.826;2023-12-22T03:32:21;5.50;99.90
1277;DHT22;631;51.024;13.826;2023-12-22T03:34:47;5.60;1.00
1277;DHT22;631;51.024;13.826;2023-12-22T03:37:13;5.60;1.00
1277;DHT22;631;51.024;13.826;2023-12-22T03:39:39;5.60;1.00
1277;DHT22;631;51.024;13.826;2023-12-22T03:42:04;5.60;1.00
1277;DHT22;631;51.024;13.826;2023-12-22T03:44:30;5.70;1.00
1277;DHT22;631;51.024;13.826;2023-12-22T03:46:56;5.70;99.90
1277;DHT22;631;51.024;13.826;2023-12-22T03:49:21;5.80;99.90
1277;DHT22;631;51.024;13.826;2023-12-22T03:51:48;5.70;99.90
1277;DHT22;631;51.024;13.826;2023-12-22T03:54:14;5.80;99.90
1277;DHT22;631;51.024;13.826;2023-12-22T03:56:42;5.80;99.90
1277;DHT22;631;51.024;13.826;2023-12-22T03:59:08;5.80;99.90
1277;DHT22;631;51.024;13.826;2023-12-22T04:01:33;5.80;99.90
1277;DHT22;631;51.024;13.826;2023-12-22T04:03:59;5.90;99.90
1277;DHT22;631;51.024;13.826;2023-12-22T04:06:24;5.90;99.90
1277;DHT22;631;51.024;13.826;2023-12-22T04:08:50;5.90;99.90
1277;DHT22;631;51.024;13.826;2023-12-22T04:11:15;6.00;99.90
1277;DHT22;631;51.024;13.826;2023-12-22T04:13:41;6.00;99.90
1277;DHT22;631;51.024;13.826;2023-12-22T04:16:06;6.00;99.90
1277;DHT22;631;51.024;13.826;2023-12-22T04:18:32;6.00;87.60
1277;DHT22;631;51.024;13.826;2023-12-22T04:20:58;6.00;38.20
1277;DHT22;631;51.024;13.826;2023-12-22T04:23:24;6.00;25.00
1277;DHT22;631;51.024;13.826;2023-12-22T04:25:49;6.10;9.00
1277;DHT22;631;51.024;13.826;2023-12-22T04:28:15;6.10;1.00
1277;DHT22;631;51.024;13.826;2023-12-22T04:30:41;6.00;1.00
1277;DHT22;631;51.024;13.826;2023-12-22T04:33:07;6.00;1.00
1277;DHT22;631;51.024;13.826;2023-12-22T04:35:32;6.00;15.40
1277;DHT22;631;51.024;13.826;2023-12-22T04:37:58;5.90;11.60
1277;DHT22;631;51.024;13.826;2023-12-22T04:40:23;5.80;15.80
1277;DHT22;631;51.024;13.826;2023-12-22T04:42:49;5.90;32.50
1277;DHT22;631;51.024;13.826;2023-12-22T04:45:15;6.00;18.20
1277;DHT22;631;51.024;13.826;2023-12-22T04:47:42;5.90;21.00
1277;DHT22;631;51.024;13.826;2023-12-22T04:50:08;5.90;27.20
1277;DHT22;631;51.024;13.826;2023-12-22T04:52:34;5.90;40.20
1277;DHT22;631;51.024;13.826;2023-12-22T04:54:59;5.90;32.70
1277;DHT22;631;51.024;13.826;2023-12-22T04:57:25;5.80;42.40
1277;DHT22;631;51.024;13.826;2023-12-22T04:59:50;5.80;37.90
1277;DHT22;631;51.024;13.826;2023-12-22T05:02:16;5.80;45.70
1277;DHT22;631;51.024;13.826;2023-12-22T05:04:41;5.70;45.20
1277;DHT22;631;51.024;13.826;2023-12-22T05:07:07;5.80;70.10
1277;DHT22;631;51.024;13.826;2023-12-22T05:09:36;5.70;50.00
1277;DHT22;631;51.024;13.826;2023-12-22T05:12:02;5.70;39.60
1277;DHT22;631;51.024;13.826;2023-12-22T05:14:27;5.80;56.80
1277;DHT22;631;51.024;13.826;2023-12-22T05:16:53;5.70;77.00
1277;DHT22;631;51.024;13.826;2023-12-22T05:19:21;5.80;55.50
1277;DHT22;631;51.024;13.826;2023-12-22T05:21:46;5.70;99.90
1277;DHT22;631;51.024;13.826;2023-12-22T05:24:13;5.70;99.90
1277;DHT22;631;51.024;13.826;2023-12-22T05:26:39;5.70;99.90
1277;DHT22;631;51.024;13.826;2023-12-22T05:29:05;5.60;99.90
1277;DHT22;631;51.024;13.826;2023-12-22T05:31:30;5.60;99.90
1277;DHT22;631;51.024;13.826;2023-12-22T05:33:58;5.50;99.90
1277;DHT22;631;51.024;13.826;2023-12-22T05:36:23;5.50;99.90
1277;DHT22;631;51.024;13.826;2023-12-22T05:38:51;5.50;99.90
1277;DHT22;631;51.024;13.826;2023-12-22T05:41:16;5.40;99.90
1277;DHT22;631;51.024;13.826;2023-12-22T05:43:42;5.40;99.90
1277;DHT22;631;51.024;13.826;2023-12-22T05:46:08;5.40;99.90
1277;DHT22;631;51.024;13.826;2023-12-22T05:48:35;5.30;99.90
1277;DHT22;631;51.024;13.826;2023-12-22T05:51:01;5.20;1.00
1277;DHT22;631;51.024;13.826;2023-12-22T05:53:28;5.20;1.00
1277;DHT22;631;51.024;13.826;2023-12-22T05:55:54;5.30;1.00
1277;DHT22;631;51.024;13.826;2023-12-22T05:58:19;5.20;1.00
1277;DHT22;631;51.024;13.826;2023-12-22T06:00:45;5.30;1.00
1277;DHT22;631;51.024;13.826;2023-12-22T06:03:11;5.30;1.00
1277;DHT22;631;51.024;13.826;2023-12-22T06:05:36;5.30;1.00
1277;DHT22;631;51.024;13.826;2023-12-22T06:08:02;5.30;1.00
1277;DHT22;631;51.024;13.826;2023-12-22T06:10:27;5.30;1.00
1277;DHT22;631;51.024;13.826;2023-12-22T06:12:53;5.30;1.00
1277;DHT22;631;51.024;13.826;2023-12-22T06:15:19;5.30;1.00
1277;DHT22;631;51.024;13.826;2023-12-22T06:17:44;5.20;1.00
1277;DHT22;631;51.024;13.826;2023-12-22T06:20:10;5.30;1.00
1277;DHT22;631;51.024;13.826;2023-12-22T06:22:36;5.20;1.00
1277;DHT22;631;51.024;13.826;2023-12-22T06:25:01;5.30;1.00
1277;DHT22;631;51.024;13.826;2023-12-22T06:27:35;5.20;1.00
1277;DHT22;631;51.024;13.826;2023-12-22T06:30:03;5.30;1.00
1277;DHT22;631;51.024;13.826;2023-12-22T06:32:29;5.30;1.00
1277;DHT22;631;51.024;13.826;2023-12-22T06:34:54;5.30;1.00
1277;DHT22;631;51.024;13.826;2023-12-22T06:37:20;5.30;1.00
1277;DHT22;631;51.024;13.826;2023-12-22T06:39:46;5.30;99.90
1277;DHT22;631;51.024;13.826;2023-12-22T06:42:11;5.30;99.90
1277;DHT22;631;51.024;13.826;2023-12-22T06:44:38;5.30;99.90
1277;DHT22;631;51.024;13.826;2023-12-22T06:47:03;5.20;99.90
1277;DHT22;631;51.024;13.826;2023-12-22T06:49:30;5.20;99.90
1277;DHT22;631;51.024;13.826;2023-12-22T06:51:55;5.20;99.90
1277;DHT22;631;51.024;13.826;2023-12-22T06:54:21;5.20;99.90
1277;DHT22;631;51.024;13.826;2023-12-22T06:56:47;5.20;99.90
1277;DHT22;631;51.024;13.826;2023-12-22T06:59:12;5.20;99.90
1277;DHT22;631;51.024;13.826;2023-12-22T07:01:38;5.20;99.90
1277;DHT22;631;51.024;13.826;2023-12-22T07:04:04;5.10;99.90
1277;DHT22;631;51.024;13.826;2023-12-22T07:06:31;5.10;99.90
1277;DHT22;631;51.024;13.826;2023-12-22T07:11:51;5.10;99.90
1277;DHT22;631;51.024;13.826;2023-12-22T07:14:21;5.00;99.90
1277;DHT22;631;51.024;13.826;2023-12-22T07:16:46;5.00;99.90
1277;DHT22;631;51.024;13.826;2023-12-22T07:19:12;5.00;99.90
1277;DHT22;631;51.024;13.826;2023-12-22T07:21:41;5.00;99.90
1277;DHT22;631;51.024;13.826;2023-12-22T07:24:07;4.90;99.90
1277;DHT22;631;51.024;13.826;2023-12-22T07:26:32;5.00;99.90
1277;DHT22;631;51.024;13.826;2023-12-22T07:28:58;5.00;99.90
1277;DHT22;631;51.024;13.826;2023-12-22T07:31:24;5.00;99.90
1277;DHT22;631;51.024;13.826;2023-12-22T07:33:50;5.10;99.90
1277;DHT22;631;51.024;13.826;2023-12-22T07:36:17;5.00;99.90
1277;DHT22;631;51.024;13.826;2023-12-22T07:38:43;5.10;99.90
1277;DHT22;631;51.024;13.826;2023-12-22T07:41:09;5.10;99.90
1277;DHT22;631;51.024;13.826;2023-12-22T07:43:35;5.10;99.90
1277;DHT22;631;51.024;13.826;2023-12-22T07:46:00;5.10;99.90
1277;DHT22;631;51.024;13.826;2023-12-22T07:48:26;5.10;99.90
1277;DHT22;631;51.024;13.826;2023-12-22T07:50:51;5.10;99.90
1277;DHT22;631;51.024;13.826;2023-12-22T07:53:17;5.10;99.90
1277;DHT22;631;51.024;13.826;2023-12-22T07:55:46;5.00;1.00
1277;DHT22;631;51.024;13.826;2023-12-22T07:58:12;5.00;1.00
1277;DHT22;631;51.024;13.826;2023-12-22T08:00:38;4.90;99.90
1277;DHT22;631;51.024;13.826;2023-12-22T08:03:04;4.80;19.90
1277;DHT22;631;51.024;13.826;2023-12-22T08:05:29;4.70;1.00
1277;DHT22;631;51.024;13.826;2023-12-22T08:07:55;4.70;99.90
1277;DHT22;631;51.024;13.826;2023-12-22T08:10:21;4.70;99.90
1277;DHT22;631;51.024;13.826;2023-12-22T08:12:47;4.50;99.90
1277;DHT22;631;51.024;13.826;2023-12-22T08:15:12;4.30;99.90
1277;DHT22;631;51.024;13.826;2023-12-22T08:17:46;3.90;1.00
1277;DHT22;631;51.024;13.826;2023-12-22T08:20:17;3.60;1.00
1277;DHT22;631;51.024;13.826;2023-12-22T08:22:45;3.40;1.00
1277;DHT22;631;51.024;13.826;2023-12-22T08:25:11;3.20;1.00
1277;DHT22;631;51.024;13.826;2023-12-22T08:27:36;3.00;17.50
1277;DHT22;631;51.024;13.826;2023-12-22T08:30:02;2.80;70.70
1277;DHT22;631;51.024;13.826;2023-12-22T08:32:28;2.80;99.90
1277;DHT22;631;51.024;13.826;2023-12-22T08:34:54;2.80;99.90
1277;DHT22;631;51.024;13.826;2023-12-22T08:37:20;2.70;99.90
1277;DHT22;631;51.024;13.826;2023-12-22T08:39:45;2.80;99.90
1277;DHT22;631;51.024;13.826;2023-12-22T08:42:11;2.80;99.90
1277;DHT22;631;51.024;13.826;2023-12-22T08:44:37;2.80;99.90
1277;DHT22;631;51.024;13.826;2023-12-22T08:47:03;2.70;99.90
1277;DHT22;631;51.024;13.826;2023-12-22T08:49:28;2.70;99.90
1277;DHT22;631;51.024;13.826;2023-12-22T08:51:54;2.60;99.90
1277;DHT22;631;51.024;13.826;2023-12-22T08:54:20;2.70;99.90
1277;DHT22;631;51.024;13.826;2023-12-22T08:56:45;2.70;99.90
1277;DHT22;631;51.024;13.826;2023-12-22T08:59:11;2.70;99.90
1277;DHT22;631;51.024;13.826;2023-12-22T09:01:36;2.80;99.90
1277;DHT22;631;51.024;13.826;2023-12-22T09:04:02;2.80;99.90
1277;DHT22;631;51.024;13.826;2023-12-22T09:06:27;2.80;99.90
1277;DHT22;631;51.024;13.826;2023-12-22T09:08:53;2.80;99.90
1277;DHT22;631;51.024;13.826;2023-12-22T09:11:20;2.90;99.90
1277;DHT22;631;51.024;13.826;2023-12-22T09:13:46;2.90;99.90
1277;DHT22;631;51.024;13.826;2023-12-22T09:16:11;3.00;99.90
1277;DHT22;631;51.024;13.826;2023-12-22T09:18:40;3.10;99.90
1277;DHT22;631;51.024;13.826;2023-12-22T09:21:07;3.10;99.90
1277;DHT22;631;51.024;13.826;2023-12-22T09:23:33;3.10;99.90
1277;DHT22;631;51.024;13.826;2023-12-22T09:25:58;3.10;99.90
1277;DHT22;631;51.024;13.826;2023-12-22T09:28:24;3.10;99.90
1277;DHT22;631;51.024;13.826;2023-12-22T09:30:50;3.20;99.90
1277;DHT22;631;51.024;13.826;2023-12-22T09:33:16;3.20;99.90
1277;DHT22;631;51.024;13.826;2023-12-22T09:35:42;3.20;99.90
1277;DHT22;631;51.024;13.826;2023-12-22T09:38:08;3.20;99.90
1277;DHT22;631;51.024;13.826;2023-12-22T09:40:40;3.30;99.90
1277;DHT22;631;51.024;13.826;2023-12-22T09:43:08;3.30;99.90
1277;DHT22;631;51.024;13.826;2023-12-22T09:45:35;3.30;99.90
1277;DHT22;631;51.024;13.826;2023-12-22T09:48:02;3.70;99.90
1277;DHT22;631;51.024;13.826;2023-12-22T09:50:30;3.90;99.90
1277;DHT22;631;51.024;13.826;2023-12-22T09:52:56;4.10;99.90
1277;DHT22;631;51.024;13.826;2023-12-22T09:55:23;4.10;99.90
1277;DHT22;631;51.024;13.826;2023-12-22T09:57:49;4.10;99.90
1277;DHT22;631;51.024;13.826;2023-12-22T10:00:16;4.10;99.90
1277;DHT22;631;51.024;13.826;2023-12-22T10:02:43;4.10;99.90
1277;DHT22;631;51.024;13.826;2023-12-22T10:05:11;4.20;99.90
1277;DHT22;631;51.024;13.826;2023-12-22T10:07:39;4.20;99.90
1277;DHT22;631;51.024;13.826;2023-12-22T10:10:05;4.20;62.20
1277;DHT22;631;51.024;13.826;2023-12-22T10:12:33;4.30;28.80
1277;DHT22;631;51.024;13.826;2023-12-22T10:15:00;4.40;20.50
1277;DHT22;631;51.024;13.826;2023-12-22T10:17:26;4.30;1.00
1277;DHT22;631;51.024;13.826;2023-12-22T10:19:52;4.40;1.00
1277;DHT22;631;51.024;13.826;2023-12-22T10:22:18;4.40;1.00
1277;DHT22;631;51.024;13.826;2023-12-22T10:24:45;4.50;1.00
1277;DHT22;631;51.024;13.826;2023-12-22T10:27:16;4.70;1.00
1277;DHT22;631;51.024;13.826;2023-12-22T10:29:53;4.80;1.00
1277;DHT22;631;51.024;13.826;2023-12-22T10:32:20;5.00;1.00
1277;DHT22;631;51.024;13.826;2023-12-22T10:34:46;5.20;1.00
1277;DHT22;631;51.024;13.826;2023-12-22T10:37:12;5.30;1.00
1277;DHT22;631;51.024;13.826;2023-12-22T10:39:41;5.40;99.90
1277;DHT22;631;51.024;13.826;2023-12-22T10:42:07;5.40;99.90
1277;DHT22;631;51.024;13.826;2023-12-22T10:44:33;5.30;99.90
1277;DHT22;631;51.024;13.826;2023-12-22T10:47:00;5.40;99.90
1277;DHT22;631;51.024;13.826;2023-12-22T10:49:25;5.40;1.00
1277;DHT22;631;51.024;13.826;2023-12-22T10:51:51;5.60;1.00
1277;DHT22;631;51.024;13.826;2023-12-22T10:54:18;6.20;1.00
1277;DHT22;631;51.024;13.826;2023-12-22T10:56:44;6.70;99.90
1277;DHT22;631;51.024;13.826;2023-12-22T10:59:09;6.60;99.90
1277;DHT22;631;51.024;13.826;2023-12-22T11:01:38;6.60;1.00
1277;DHT22;631;51.024;13.826;2023-12-22T11:04:09;6.40;1.00
1277;DHT22;631;51.024;13.826;2023-12-22T11:06:38;6.20;1.00
1277;DHT22;631;51.024;13.826;2023-12-22T11:09:07;6.00;99.90
1277;DHT22;631;51.024;13.826;2023-12-22T11:11:36;5.80;99.90
1277;DHT22;631;51.024;13.826;2023-12-22T11:14:03;5.20;99.90
1277;DHT22;631;51.024;13.826;2023-12-22T11:16:29;5.00;99.90
1277;DHT22;631;51.024;13.826;2023-12-22T11:18:55;4.70;1.00
1277;DHT22;631;51.024;13.826;2023-12-22T11:21:22;4.60;1.00
1277;DHT22;631;51.024;13.826;2023-12-22T11:23:50;4.50;1.00
1277;DHT22;631;51.024;13.826;2023-12-22T11:26:19;4.40;1.00
1277;DHT22;631;51.024;13.826;2023-12-22T11:28:46;4.30;1.00
1277;DHT22;631;51.024;13.826;2023-12-22T11:31:12;4.40;1.00
1277;DHT22;631;51.024;13.826;2023-12-22T11:33:43;4.50;1.00
1277;DHT22;631;51.024;13.826;2023-12-22T11:36:11;4.60;1.00
1277;DHT22;631;51.024;13.826;2023-12-22T11:38:37;4.90;1.00
1277;DHT22;631;51.024;13.826;2023-12-22T11:41:05;5.20;1.00
1277;DHT22;631;51.024;13.826;2023-12-22T11:43:32;5.40;99.90
1277;DHT22;631;51.024;13.826;2023-12-22T11:46:03;5.60;1.00
1277;DHT22;631;51.024;13.826;2023-12-22T11:48:31;5.60;99.90
1277;DHT22;631;51.024;13.826;2023-12-22T11:50:57;5.50;1.00
1277;DHT22;631;51.024;13.826;2023-12-22T11:53:25;5.40;50.30
1277;DHT22;631;51.024;13.826;2023-12-22T11:56:04;5.40;99.90
1277;DHT22;631;51.024;13.826;2023-12-22T11:58:34;5.30;1.00
1277;DHT22;631;51.024;13.826;2023-12-22T12:01:09;5.30;1.00
1277;DHT22;631;51.024;13.826;2023-12-22T12:08:51;5.20;1.00
1277;DHT22;631;51.024;13.826;2023-12-22T12:11:19;5.20;29.00
1277;DHT22;631;51.024;13.826;2023-12-22T12:13:46;5.30;1.00
1277;DHT22;631;51.024;13.826;2023-12-22T12:16:12;5.40;99.90
1277;DHT22;631;51.024;13.826;2023-12-22T12:18:39;5.60;99.90
1277;DHT22;631;51.024;13.826;2023-12-22T12:21:10;5.80;99.90
1277;DHT22;631;51.024;13.826;2023-12-22T12:23:36;6.00;99.90
1277;DHT22;631;51.024;13.826;2023-12-22T12:26:02;6.10;13.70
1277;DHT22;631;51.024;13.826;2023-12-22T12:28:34;6.20;1.00
1277;DHT22;631;51.024;13.826;2023-12-22T12:31:03;6.20;99.90
1277;DHT22;631;51.024;13.826;2023-12-22T12:33:29;6.30;66.30
1277;DHT22;631;51.024;13.826;2023-12-22T12:36:02;6.40;1.00
1277;DHT22;631;51.024;13.826;2023-12-22T12:41:30;6.40;1.00
1277;DHT22;631;51.024;13.826;2023-12-22T12:43:58;6.30;1.00
1277;DHT22;631;51.024;13.826;2023-12-22T12:46:32;6.10;1.00
1277;DHT22;631;51.024;13.826;2023-12-22T12:49:24;5.90;1.00
1277;DHT22;631;51.024;13.826;2023-12-22T12:51:53;5.80;1.00
1277;DHT22;631;51.024;13.826;2023-12-22T12:54:19;5.50;1.00
1277;DHT22;631;51.024;13.826;2023-12-22T12:56:45;5.20;1.00
1277;DHT22;631;51.024;13.826;2023-12-22T12:59:15;5.10;1.00
1277;DHT22;631;51.024;13.826;2023-12-22T13:01:42;4.90;1.00
1277;DHT22;631;51.024;13.826;2023-12-22T13:04:09;4.80;1.00
1277;DHT22;631;51.024;13.826;2023-12-22T13:06:35;4.60;1.00
1277;DHT22;631;51.024;13.826;2023-12-22T13:09:01;4.60;1.00
1277;DHT22;631;51.024;13.826;2023-12-22T13:11:28;4.50;99.90
1277;DHT22;631;51.024;13.826;2023-12-22T13:13:56;4.50;99.90
1277;DHT22;631;51.024;13.826;2023-12-22T13:16:23;4.40;1.00
1277;DHT22;631;51.024;13.826;2023-12-22T13:18:53;4.30;1.00
1277;DHT22;631;51.024;13.826;2023-12-22T13:21:19;4.20;1.00
1277;DHT22;631;51.024;13.826;2023-12-22T13:23:45;4.20;1.00
1277;DHT22;631;51.024;13.826;2023-12-22T13:26:20;4.10;1.00
1277;DHT22;631;51.024;13.826;2023-12-22T13:28:46;4.00;17.50
1277;DHT22;631;51.024;13.826;2023-12-22T13:31:15;4.00;35.80
1277;DHT22;631;51.024;13.826;2023-12-22T13:33:43;3.90;94.40
1277;DHT22;631;51.024;13.826;2023-12-22T13:36:10;3.90;99.90
1277;DHT22;631;51.024;13.826;2023-12-22T13:38:36;3.90;99.90
1277;DHT22;631;51.024;13.826;2023-12-22T13:41:02;3.80;99.90
1277;DHT22;631;51.024;13.826;2023-12-22T13:43:29;3.80;99.90
1277;DHT22;631;51.024;13.826;2023-12-22T13:45:55;3.70;99.90
1277;DHT22;631;51.024;13.826;2023-12-22T13:48:21;3.60;99.90
1277;DHT22;631;51.024;13.826;2023-12-22T13:51:00;3.60;99.90
1277;DHT22;631;51.024;13.826;2023-12-22T13:53:27;3.50;99.90
1277;DHT22;631;51.024;13.826;2023-12-22T13:55:59;3.40;99.90
1277;DHT22;631;51.024;13.826;2023-12-22T13:58:25;3.40;99.90
1277;DHT22;631;51.024;13.826;2023-12-22T14:00:53;3.40;99.90
1277;DHT22;631;51.024;13.826;2023-12-22T14:03:19;3.40;99.90
1277;DHT22;631;51.024;13.826;2023-12-22T14:05:48;3.40;99.90
1277;DHT22;631;51.024;13.826;2023-12-22T14:08:15;3.40;99.90
1277;DHT22;631;51.024;13.826;2023-12-22T14:10:47;3.30;99.90
1277;DHT22;631;51.024;13.826;2023-12-22T14:13:14;3.30;99.90
1277;DHT22;631;51.024;13.826;2023-12-22T14:15:42;3.40;99.90
1277;DHT22;631;51.024;13.826;2023-12-22T14:18:08;3.40;99.90
1277;DHT22;631;51.024;13.826;2023-12-22T14:20:34;3.40;99.90
1277;DHT22;631;51.024;13.826;2023-12-22T14:23:00;3.40;99.90
1277;DHT22;631;51.024;13.826;2023-12-22T14:25:25;3.30;99.90
1277;DHT22;631;51.024;13.826;2023-12-22T14:27:52;3.30;99.90
1277;DHT22;631;51.024;13.826;2023-12-22T14:30:25;3.30;99.90
1277;DHT22;631;51.024;13.826;2023-12-22T14:32:51;3.30;99.90
1277;DHT22;631;51.024;13.826;2023-12-22T14:35:16;3.30;99.90
1277;DHT22;631;51.024;13.826;2023-12-22T14:37:42;3.30;99.90
1277;DHT22;631;51.024;13.826;2023-12-22T14:40:08;3.40;99.90
1277;DHT22;631;51.024;13.826;2023-12-22T14:42:34;3.40;99.90
1277;DHT22;631;51.024;13.826;2023-12-22T14:45:00;3.30;99.90
1277;DHT22;631;51.024;13.826;2023-12-22T14:47:27;3.30;99.90
1277;DHT22;631;51.024;13.826;2023-12-22T14:49:53;3.30;99.90
1277;DHT22;631;51.024;13.826;2023-12-22T14:52:18;3.30;99.90
1277;DHT22;631;51.024;13.826;2023-12-22T14:54:45;3.30;99.90
1277;DHT22;631;51.024;13.826;2023-12-22T14:57:11;3.30;99.90
1277;DHT22;631;51.024;13.826;2023-12-22T14:59:37;3.40;99.90
1277;DHT22;631;51.024;13.826;2023-12-22T15:02:03;3.40;99.90
1277;DHT22;631;51.024;13.826;2023-12-22T15:04:31;3.40;99.90
1277;DHT22;631;51.024;13.826;2023-12-22T15:06:58;3.30;99.90
1277;DHT22;631;51.024;13.826;2023-12-22T15:09:24;3.30;99.90
1277;DHT22;631;51.024;13.826;2023-12-22T15:11:50;3.30;99.90
1277;DHT22;631;51.024;13.826;2023-12-22T15:14:16;3.40;99.90
1277;DHT22;631;51.024;13.826;2023-12-22T15:16:42;3.40;99.90
1277;DHT22;631;51.024;13.826;2023-12-22T15:19:14;3.50;99.90
1277;DHT22;631;51.024;13.826;2023-12-22T15:21:40;3.50;99.90
1277;DHT22;631;51.024;13.826;2023-12-22T15:24:07;3.50;99.90
1277;DHT22;631;51.024;13.826;2023-12-22T15:26:33;3.50;99.90
1277;DHT22;631;51.024;13.826;2023-12-22T15:28:59;3.50;99.90
1277;DHT22;631;51.024;13.826;2023-12-22T15:31:25;3.50;99.90
1277;DHT22;631;51.024;13.826;2023-12-22T15:33:51;3.50;99.90
1277;DHT22;631;51.024;13.826;2023-12-22T15:36:20;3.50;99.90
1277;DHT22;631;51.024;13.826;2023-12-22T15:38:47;3.50;99.90
1277;DHT22;631;51.024;13.826;2023-12-22T15:41:13;3.50;99.90
1277;DHT22;631;51.024;13.826;2023-12-22T15:43:39;3.50;99.90
1277;DHT22;631;51.024;13.826;2023-12-22T15:46:06;3.60;99.90
1277;DHT22;631;51.024;13.826;2023-12-22T15:48:32;3.60;99.90
1277;DHT22;631;51.024;13.826;2023-12-22T15:50:58;3.60;99.90
1277;DHT22;631;51.024;13.826;2023-12-22T15:53:24;3.70;99.90
1277;DHT22;631;51.024;13.826;2023-12-22T15:55:49;3.70;99.90
1277;DHT22;631;51.024;13.826;2023-12-22T15:58:15;3.70;99.90
1277;DHT22;631;51.024;13.826;2023-12-22T16:00:41;3.70;99.90
1277;DHT22;631;51.024;13.826;2023-12-22T16:03:07;3.70;99.90
1277;DHT22;631;51.024;13.826;2023-12-22T16:05:32;3.80;99.90
1277;DHT22;631;51.024;13.826;2023-12-22T16:07:58;3.80;99.90
1277;DHT22;631;51.024;13.826;2023-12-22T16:10:27;3.80;99.90
1277;DHT22;631;51.024;13.826;2023-12-22T16:12:52;3.90;99.90
1277;DHT22;631;51.024;13.826;2023-12-22T16:15:18;3.80;99.90
1277;DHT22;631;51.024;13.826;2023-12-22T16:17:44;3.80;99.90
1277;DHT22;631;51.024;13.826;2023-12-22T16:20:10;3.80;99.90
1277;DHT22;631;51.024;13.826;2023-12-22T16:22:37;3.70;99.90
1277;DHT22;631;51.024;13.826;2023-12-22T16:25:03;3.70;99.90
1277;DHT22;631;51.024;13.826;2023-12-22T16:27:31;3.80;99.90
1277;DHT22;631;51.024;13.826;2023-12-22T16:29:57;3.80;99.90
1277;DHT22;631;51.024;13.826;2023-12-22T16:32:22;3.80;99.90
1277;DHT22;631;51.024;13.826;2023-12-22T16:34:48;3.80;99.90
1277;DHT22;631;51.024;13.826;2023-12-22T16:37:14;3.70;99.90